sensor_id;sensor_type;location;lat;lon;timestamp;P1;durP1;ratioP1;P2;durP2;ratioP2
22248;SDS011;67538;52.180;5.646;2023-05-10T00:02:21;72.28;;;34.97;;
22248;SDS011;67538;52.180;5.646;2023-05-10T00:04:49;74.67;;;35.37;;
22248;SDS011;67538;52.180;5.646;2023-05-10T00:07:17;78.75;;;35.47;;
22248;SDS011;67538;52.180;5.646;2023-05-10T00:09:44;76.43;;;36.53;;
22248;SDS011;67538;52.180;5.646;2023-05-10T00:12:11;79.30;;;36.58;;
22248;SDS011;67538;52.180;5.646;2023-05-10T00:14:39;80.28;;;36.40;;
22248;SDS011;67538;52.180;5.646;2023-05-10T00:17:06;83.82;;;37.10;;
22248;SDS011;67538;52.180;5.646;2023-05-10T00:19:33;88.25;;;38.42;;
22248;SDS011;67538;52.180;5.646;2023-05-10T00:22:00;86.78;;;38.00;;
22248;SDS011;67538;52.180;5.646;2023-05-10T00:24:28;102.45;;;41.45;;
22248;SDS011;67538;52.180;5.646;2023-05-10T00:26:55;106.10;;;42.30;;
22248;SDS011;67538;52.180;5.646;2023-05-10T00:29:22;113.43;;;43.38;;
22248;SDS011;67538;52.180;5.646;2023-05-10T00:31:50;111.88;;;43.35;;
22248;SDS011;67538;52.180;5.646;2023-05-10T00:34:17;123.63;;;45.80;;
22248;SDS011;67538;52.180;5.646;2023-05-10T00:36:44;120.68;;;45.05;;
22248;SDS011;67538;52.180;5.646;2023-05-10T00:39:11;128.93;;;45.00;;
22248;SDS011;67538;52.180;5.646;2023-05-10T00:41:38;112.15;;;42.83;;
22248;SDS011;67538;52.180;5.646;2023-05-10T00:44:05;116.43;;;44.75;;
22248;SDS011;67538;52.180;5.646;2023-05-10T00:46:32;112.47;;;43.03;;
22248;SDS011;67538;52.180;5.646;2023-05-10T00:49:01;118.22;;;44.40;;
22248;SDS011;67538;52.180;5.646;2023-05-10T00:51:29;115.35;;;44.70;;
22248;SDS011;67538;52.180;5.646;2023-05-10T00:53:57;117.30;;;44.63;;
22248;SDS011;67538;52.180;5.646;2023-05-10T00:56:25;123.38;;;45.63;;
22248;SDS011;67538;52.180;5.646;2023-05-10T00:58:54;130.52;;;47.13;;
22248;SDS011;67538;52.180;5.646;2023-05-10T01:01:22;131.15;;;48.28;;
22248;SDS011;67538;52.180;5.646;2023-05-10T01:03:49;143.85;;;50.40;;
22248;SDS011;67538;52.180;5.646;2023-05-10T01:06:18;154.95;;;51.95;;
22248;SDS011;67538;52.180;5.646;2023-05-10T01:08:45;154.63;;;52.08;;
22248;SDS011;67538;52.180;5.646;2023-05-10T01:11:13;162.65;;;53.30;;
22248;SDS011;67538;52.180;5.646;2023-05-10T01:13:41;176.57;;;56.03;;
22248;SDS011;67538;52.180;5.646;2023-05-10T01:16:09;198.25;;;58.67;;
22248;SDS011;67538;52.180;5.646;2023-05-10T01:18:37;201.77;;;58.90;;
22248;SDS011;67538;52.180;5.646;2023-05-10T01:21:13;204.95;;;59.97;;
22248;SDS011;67538;52.180;5.646;2023-05-10T01:23:53;207.93;;;59.83;;
22248;SDS011;67538;52.180;5.646;2023-05-10T01:26:54;222.27;;;64.73;;
22248;SDS011;67538;52.180;5.646;2023-05-10T01:30:01;231.73;;;65.57;;
22248;SDS011;67538;52.180;5.646;2023-05-10T01:32:37;228.73;;;65.72;;
22248;SDS011;67538;52.180;5.646;2023-05-10T01:35:14;236.00;;;66.60;;
22248;SDS011;67538;52.180;5.646;2023-05-10T01:37:45;244.52;;;67.90;;
22248;SDS011;67538;52.180;5.646;2023-05-10T01:40:18;251.20;;;67.25;;
22248;SDS011;67538;52.180;5.646;2023-05-10T01:42:50;251.63;;;68.83;;
22248;SDS011;67538;52.180;5.646;2023-05-10T01:45:23;257.63;;;69.90;;
22248;SDS011;67538;52.180;5.646;2023-05-10T01:48:01;268.63;;;71.28;;
22248;SDS011;67538;52.180;5.646;2023-05-10T01:50:31;275.90;;;72.95;;
22248;SDS011;67538;52.180;5.646;2023-05-10T01:53:00;271.55;;;73.15;;
22248;SDS011;67538;52.180;5.646;2023-05-10T01:55:30;266.92;;;73.25;;
22248;SDS011;67538;52.180;5.646;2023-05-10T01:58:01;264.92;;;72.30;;
22248;SDS011;67538;52.180;5.646;2023-05-10T02:00:31;270.48;;;72.95;;
22248;SDS011;67538;52.180;5.646;2023-05-10T02:03:01;255.35;;;72.57;;
22248;SDS011;67538;52.180;5.646;2023-05-10T02:05:32;277.87;;;74.47;;
22248;SDS011;67538;52.180;5.646;2023-05-10T02:08:01;267.80;;;73.43;;
22248;SDS011;67538;52.180;5.646;2023-05-10T02:10:32;263.10;;;73.47;;
22248;SDS011;67538;52.180;5.646;2023-05-10T02:13:00;259.83;;;73.28;;
22248;SDS011;67538;52.180;5.646;2023-05-10T02:15:28;258.27;;;74.25;;
22248;SDS011;67538;52.180;5.646;2023-05-10T02:17:56;264.00;;;74.00;;
22248;SDS011;67538;52.180;5.646;2023-05-10T02:20:26;260.42;;;73.45;;
22248;SDS011;67538;52.180;5.646;2023-05-10T02:22:54;257.60;;;72.20;;
22248;SDS011;67538;52.180;5.646;2023-05-10T02:25:22;252.98;;;71.55;;
22248;SDS011;67538;52.180;5.646;2023-05-10T02:27:50;253.70;;;71.05;;
22248;SDS011;67538;52.180;5.646;2023-05-10T02:30:20;258.50;;;72.10;;
22248;SDS011;67538;52.180;5.646;2023-05-10T02:32:48;258.58;;;71.15;;
22248;SDS011;67538;52.180;5.646;2023-05-10T02:35:15;248.30;;;69.22;;
22248;SDS011;67538;52.180;5.646;2023-05-10T02:37:44;252.90;;;70.82;;
22248;SDS011;67538;52.180;5.646;2023-05-10T02:40:13;248.93;;;68.43;;
22248;SDS011;67538;52.180;5.646;2023-05-10T02:42:43;249.50;;;68.90;;
22248;SDS011;67538;52.180;5.646;2023-05-10T02:45:14;252.85;;;70.38;;
22248;SDS011;67538;52.180;5.646;2023-05-10T02:47:50;241.70;;;68.47;;
22248;SDS011;67538;52.180;5.646;2023-05-10T02:50:17;240.25;;;67.88;;
22248;SDS011;67538;52.180;5.646;2023-05-10T02:52:46;253.10;;;69.43;;
22248;SDS011;67538;52.180;5.646;2023-05-10T02:55:16;238.40;;;67.53;;
22248;SDS011;67538;52.180;5.646;2023-05-10T02:57:49;253.88;;;69.25;;
22248;SDS011;67538;52.180;5.646;2023-05-10T03:00:18;254.23;;;68.83;;
22248;SDS011;67538;52.180;5.646;2023-05-10T03:02:46;249.57;;;68.00;;
22248;SDS011;67538;52.180;5.646;2023-05-10T03:05:13;233.15;;;67.32;;
22248;SDS011;67538;52.180;5.646;2023-05-10T03:07:40;251.50;;;68.60;;
22248;SDS011;67538;52.180;5.646;2023-05-10T03:10:09;247.38;;;66.28;;
22248;SDS011;67538;52.180;5.646;2023-05-10T03:12:46;237.98;;;65.95;;
22248;SDS011;67538;52.180;5.646;2023-05-10T03:15:25;233.32;;;66.60;;
22248;SDS011;67538;52.180;5.646;2023-05-10T03:18:01;226.15;;;66.47;;
22248;SDS011;67538;52.180;5.646;2023-05-10T03:20:34;229.20;;;65.97;;
22248;SDS011;67538;52.180;5.646;2023-05-10T03:23:04;228.10;;;67.30;;
22248;SDS011;67538;52.180;5.646;2023-05-10T03:25:38;228.90;;;65.60;;
22248;SDS011;67538;52.180;5.646;2023-05-10T03:28:08;221.38;;;65.45;;
22248;SDS011;67538;52.180;5.646;2023-05-10T03:30:36;220.57;;;64.55;;
22248;SDS011;67538;52.180;5.646;2023-05-10T03:33:05;221.93;;;66.70;;
22248;SDS011;67538;52.180;5.646;2023-05-10T03:35:33;210.60;;;65.03;;
22248;SDS011;67538;52.180;5.646;2023-05-10T03:38:00;211.70;;;64.95;;
22248;SDS011;67538;52.180;5.646;2023-05-10T03:40:27;208.40;;;64.60;;
22248;SDS011;67538;52.180;5.646;2023-05-10T03:42:58;219.25;;;64.68;;
22248;SDS011;67538;52.180;5.646;2023-05-10T03:45:25;240.55;;;67.55;;
22248;SDS011;67538;52.180;5.646;2023-05-10T03:47:52;252.95;;;68.38;;
22248;SDS011;67538;52.180;5.646;2023-05-10T03:50:20;252.57;;;67.97;;
22248;SDS011;67538;52.180;5.646;2023-05-10T03:52:47;236.73;;;65.45;;
22248;SDS011;67538;52.180;5.646;2023-05-10T03:55:14;231.27;;;64.70;;
22248;SDS011;67538;52.180;5.646;2023-05-10T03:57:41;239.67;;;66.23;;
22248;SDS011;67538;52.180;5.646;2023-05-10T04:00:10;237.63;;;64.45;;
22248;SDS011;67538;52.180;5.646;2023-05-10T04:02:38;255.45;;;67.75;;
22248;SDS011;67538;52.180;5.646;2023-05-10T04:05:05;257.67;;;67.90;;
22248;SDS011;67538;52.180;5.646;2023-05-10T04:07:32;269.35;;;67.93;;
22248;SDS011;67538;52.180;5.646;2023-05-10T04:09:59;284.35;;;69.60;;
22248;SDS011;67538;52.180;5.646;2023-05-10T04:12:26;288.85;;;67.95;;
22248;SDS011;67538;52.180;5.646;2023-05-10T04:14:53;297.60;;;68.88;;
22248;SDS011;67538;52.180;5.646;2023-05-10T04:17:22;303.85;;;68.88;;
22248;SDS011;67538;52.180;5.646;2023-05-10T04:19:49;297.70;;;67.63;;
22248;SDS011;67538;52.180;5.646;2023-05-10T04:22:18;334.70;;;71.75;;
22248;SDS011;67538;52.180;5.646;2023-05-10T04:24:45;310.00;;;66.70;;
22248;SDS011;67538;52.180;5.646;2023-05-10T04:27:12;327.17;;;70.35;;
22248;SDS011;67538;52.180;5.646;2023-05-10T04:29:39;303.33;;;67.00;;
22248;SDS011;67538;52.180;5.646;2023-05-10T04:32:06;312.33;;;67.35;;
22248;SDS011;67538;52.180;5.646;2023-05-10T04:34:36;327.83;;;70.30;;
22248;SDS011;67538;52.180;5.646;2023-05-10T04:37:03;328.45;;;68.78;;
22248;SDS011;67538;52.180;5.646;2023-05-10T04:39:31;332.80;;;67.55;;
22248;SDS011;67538;52.180;5.646;2023-05-10T04:41:58;362.48;;;72.57;;
22248;SDS011;67538;52.180;5.646;2023-05-10T04:44:25;373.40;;;73.15;;
22248;SDS011;67538;52.180;5.646;2023-05-10T04:46:52;407.80;;;75.45;;
22248;SDS011;67538;52.180;5.646;2023-05-10T04:49:20;372.33;;;72.82;;
22248;SDS011;67538;52.180;5.646;2023-05-10T04:51:48;388.27;;;74.00;;
22248;SDS011;67538;52.180;5.646;2023-05-10T04:54:15;412.63;;;74.60;;
22248;SDS011;67538;52.180;5.646;2023-05-10T04:56:42;397.13;;;73.28;;
22248;SDS011;67538;52.180;5.646;2023-05-10T04:59:09;385.60;;;72.15;;
22248;SDS011;67538;52.180;5.646;2023-05-10T05:01:36;385.90;;;73.30;;
22248;SDS011;67538;52.180;5.646;2023-05-10T05:04:03;398.02;;;72.60;;
22248;SDS011;67538;52.180;5.646;2023-05-10T05:06:31;401.33;;;73.38;;
22248;SDS011;67538;52.180;5.646;2023-05-10T05:09:00;395.85;;;73.00;;
22248;SDS011;67538;52.180;5.646;2023-05-10T05:11:27;376.93;;;73.17;;
22248;SDS011;67538;52.180;5.646;2023-05-10T05:13:54;392.50;;;73.00;;
22248;SDS011;67538;52.180;5.646;2023-05-10T05:16:23;390.35;;;72.85;;
22248;SDS011;67538;52.180;5.646;2023-05-10T05:18:51;401.25;;;73.97;;
22248;SDS011;67538;52.180;5.646;2023-05-10T05:21:18;398.77;;;72.15;;
22248;SDS011;67538;52.180;5.646;2023-05-10T05:23:46;378.38;;;70.97;;
22248;SDS011;67538;52.180;5.646;2023-05-10T05:26:15;384.90;;;70.18;;
22248;SDS011;67538;52.180;5.646;2023-05-10T05:28:42;398.23;;;73.38;;
22248;SDS011;67538;52.180;5.646;2023-05-10T05:31:09;410.30;;;72.93;;
22248;SDS011;67538;52.180;5.646;2023-05-10T05:33:36;418.88;;;74.53;;
22248;SDS011;67538;52.180;5.646;2023-05-10T05:36:04;411.63;;;72.35;;
22248;SDS011;67538;52.180;5.646;2023-05-10T05:38:31;414.42;;;72.72;;
22248;SDS011;67538;52.180;5.646;2023-05-10T05:40:58;389.55;;;71.70;;
22248;SDS011;67538;52.180;5.646;2023-05-10T05:43:27;407.77;;;72.47;;
22248;SDS011;67538;52.180;5.646;2023-05-10T05:45:54;415.13;;;72.90;;
22248;SDS011;67538;52.180;5.646;2023-05-10T05:48:22;386.08;;;72.93;;
22248;SDS011;67538;52.180;5.646;2023-05-10T05:50:50;384.30;;;70.22;;
22248;SDS011;67538;52.180;5.646;2023-05-10T05:53:20;396.08;;;71.82;;
22248;SDS011;67538;52.180;5.646;2023-05-10T05:55:50;386.75;;;72.53;;
22248;SDS011;67538;52.180;5.646;2023-05-10T05:58:19;390.77;;;75.70;;
22248;SDS011;67538;52.180;5.646;2023-05-10T06:00:47;354.33;;;74.05;;
22248;SDS011;67538;52.180;5.646;2023-05-10T06:03:14;328.80;;;71.50;;
22248;SDS011;67538;52.180;5.646;2023-05-10T06:05:41;357.70;;;78.07;;
22248;SDS011;67538;52.180;5.646;2023-05-10T06:08:09;281.17;;;70.80;;
22248;SDS011;67538;52.180;5.646;2023-05-10T06:10:36;297.30;;;72.78;;
22248;SDS011;67538;52.180;5.646;2023-05-10T06:13:03;296.55;;;72.80;;
22248;SDS011;67538;52.180;5.646;2023-05-10T06:15:30;285.73;;;73.07;;
22248;SDS011;67538;52.180;5.646;2023-05-10T06:17:59;276.83;;;71.63;;
22248;SDS011;67538;52.180;5.646;2023-05-10T06:20:26;294.27;;;73.30;;
22248;SDS011;67538;52.180;5.646;2023-05-10T06:22:53;247.90;;;67.35;;
22248;SDS011;67538;52.180;5.646;2023-05-10T06:25:20;250.07;;;67.32;;
22248;SDS011;67538;52.180;5.646;2023-05-10T06:27:47;262.77;;;69.47;;
22248;SDS011;67538;52.180;5.646;2023-05-10T06:30:14;256.63;;;69.10;;
22248;SDS011;67538;52.180;5.646;2023-05-10T06:32:41;235.05;;;64.75;;
22248;SDS011;67538;52.180;5.646;2023-05-10T06:35:11;241.73;;;67.93;;
22248;SDS011;67538;52.180;5.646;2023-05-10T06:37:38;232.32;;;64.60;;
22248;SDS011;67538;52.180;5.646;2023-05-10T06:40:06;218.52;;;61.20;;
22248;SDS011;67538;52.180;5.646;2023-05-10T06:42:34;209.40;;;58.80;;
22248;SDS011;67538;52.180;5.646;2023-05-10T06:45:01;209.63;;;59.63;;
22248;SDS011;67538;52.180;5.646;2023-05-10T06:47:28;206.05;;;57.97;;
22248;SDS011;67538;52.180;5.646;2023-05-10T06:49:55;217.75;;;60.45;;
22248;SDS011;67538;52.180;5.646;2023-05-10T06:52:24;209.15;;;59.85;;
22248;SDS011;67538;52.180;5.646;2023-05-10T06:54:51;188.60;;;57.40;;
22248;SDS011;67538;52.180;5.646;2023-05-10T06:57:18;209.75;;;59.30;;
22248;SDS011;67538;52.180;5.646;2023-05-10T06:59:45;211.93;;;60.80;;
22248;SDS011;67538;52.180;5.646;2023-05-10T07:02:12;195.82;;;59.28;;
22248;SDS011;67538;52.180;5.646;2023-05-10T07:04:40;206.93;;;60.92;;
22248;SDS011;67538;52.180;5.646;2023-05-10T07:07:07;168.40;;;55.83;;
22248;SDS011;67538;52.180;5.646;2023-05-10T07:09:36;173.05;;;55.72;;
22248;SDS011;67538;52.180;5.646;2023-05-10T07:12:03;158.80;;;51.92;;
22248;SDS011;67538;52.180;5.646;2023-05-10T07:14:30;132.57;;;45.00;;
22248;SDS011;67538;52.180;5.646;2023-05-10T07:16:57;118.32;;;44.25;;
22248;SDS011;67538;52.180;5.646;2023-05-10T07:19:24;137.75;;;47.92;;
22248;SDS011;67538;52.180;5.646;2023-05-10T07:21:51;134.45;;;48.15;;
22248;SDS011;67538;52.180;5.646;2023-05-10T07:24:18;128.20;;;47.10;;
22248;SDS011;67538;52.180;5.646;2023-05-10T07:26:47;119.80;;;46.17;;
22248;SDS011;67538;52.180;5.646;2023-05-10T07:29:14;124.40;;;46.50;;
22248;SDS011;67538;52.180;5.646;2023-05-10T07:31:41;120.97;;;45.47;;
22248;SDS011;67538;52.180;5.646;2023-05-10T07:34:08;115.40;;;44.10;;
22248;SDS011;67538;52.180;5.646;2023-05-10T07:36:35;107.53;;;44.45;;
22248;SDS011;67538;52.180;5.646;2023-05-10T07:39:02;111.07;;;45.92;;
22248;SDS011;67538;52.180;5.646;2023-05-10T07:41:30;112.07;;;46.55;;
22248;SDS011;67538;52.180;5.646;2023-05-10T07:43:58;102.00;;;44.30;;
22248;SDS011;67538;52.180;5.646;2023-05-10T07:46:26;93.63;;;41.85;;
22248;SDS011;67538;52.180;5.646;2023-05-10T07:48:53;93.45;;;41.00;;
22248;SDS011;67538;52.180;5.646;2023-05-10T07:51:20;84.45;;;38.17;;
22248;SDS011;67538;52.180;5.646;2023-05-10T07:53:47;74.65;;;35.20;;
22248;SDS011;67538;52.180;5.646;2023-05-10T07:56:21;74.03;;;35.92;;
22248;SDS011;67538;52.180;5.646;2023-05-10T07:58:52;59.13;;;30.60;;
22248;SDS011;67538;52.180;5.646;2023-05-10T08:01:20;60.67;;;30.58;;
22248;SDS011;67538;52.180;5.646;2023-05-10T08:03:48;62.25;;;31.30;;
22248;SDS011;67538;52.180;5.646;2023-05-10T08:06:16;64.32;;;30.25;;
22248;SDS011;67538;52.180;5.646;2023-05-10T08:08:44;54.05;;;29.10;;
22248;SDS011;67538;52.180;5.646;2023-05-10T08:11:14;55.00;;;28.02;;
22248;SDS011;67538;52.180;5.646;2023-05-10T08:13:41;53.27;;;28.00;;
22248;SDS011;67538;52.180;5.646;2023-05-10T08:16:08;52.08;;;27.50;;
22248;SDS011;67538;52.180;5.646;2023-05-10T08:18:37;48.88;;;24.42;;
22248;SDS011;67538;52.180;5.646;2023-05-10T08:21:04;42.20;;;23.13;;
22248;SDS011;67538;52.180;5.646;2023-05-10T08:23:32;40.42;;;21.23;;
22248;SDS011;67538;52.180;5.646;2023-05-10T08:25:59;37.53;;;20.75;;
22248;SDS011;67538;52.180;5.646;2023-05-10T08:28:26;40.42;;;21.13;;
22248;SDS011;67538;52.180;5.646;2023-05-10T08:30:53;38.33;;;20.88;;
22248;SDS011;67538;52.180;5.646;2023-05-10T08:33:20;43.05;;;22.27;;
22248;SDS011;67538;52.180;5.646;2023-05-10T08:35:49;39.80;;;22.13;;
22248;SDS011;67538;52.180;5.646;2023-05-10T08:38:17;42.88;;;22.33;;
22248;SDS011;67538;52.180;5.646;2023-05-10T08:40:44;43.65;;;23.27;;
22248;SDS011;67538;52.180;5.646;2023-05-10T08:43:14;41.35;;;22.92;;
22248;SDS011;67538;52.180;5.646;2023-05-10T08:45:43;43.50;;;23.27;;
22248;SDS011;67538;52.180;5.646;2023-05-10T08:48:12;37.05;;;21.13;;
22248;SDS011;67538;52.180;5.646;2023-05-10T08:50:40;33.67;;;20.55;;
22248;SDS011;67538;52.180;5.646;2023-05-10T08:53:11;35.28;;;20.35;;
22248;SDS011;67538;52.180;5.646;2023-05-10T08:55:39;33.55;;;19.65;;
22248;SDS011;67538;52.180;5.646;2023-05-10T08:58:08;31.55;;;19.27;;
22248;SDS011;67538;52.180;5.646;2023-05-10T09:00:35;34.83;;;20.10;;
22248;SDS011;67538;52.180;5.646;2023-05-10T09:03:03;37.22;;;21.30;;
22248;SDS011;67538;52.180;5.646;2023-05-10T09:05:32;36.08;;;21.00;;
22248;SDS011;67538;52.180;5.646;2023-05-10T09:07:59;35.13;;;20.65;;
22248;SDS011;67538;52.180;5.646;2023-05-10T09:10:28;33.40;;;19.98;;
22248;SDS011;67538;52.180;5.646;2023-05-10T09:12:56;32.88;;;18.77;;
22248;SDS011;67538;52.180;5.646;2023-05-10T09:15:24;30.48;;;17.25;;
22248;SDS011;67538;52.180;5.646;2023-05-10T09:17:51;29.85;;;17.17;;
22248;SDS011;67538;52.180;5.646;2023-05-10T09:20:18;32.47;;;17.75;;
22248;SDS011;67538;52.180;5.646;2023-05-10T09:22:45;29.27;;;18.05;;
22248;SDS011;67538;52.180;5.646;2023-05-10T09:25:13;28.73;;;17.48;;
22248;SDS011;67538;52.180;5.646;2023-05-10T09:27:44;29.25;;;17.90;;
22248;SDS011;67538;52.180;5.646;2023-05-10T09:30:14;28.92;;;17.70;;
22248;SDS011;67538;52.180;5.646;2023-05-10T09:32:43;29.27;;;18.20;;
22248;SDS011;67538;52.180;5.646;2023-05-10T09:35:11;28.65;;;17.50;;
22248;SDS011;67538;52.180;5.646;2023-05-10T09:37:39;27.75;;;17.42;;
22248;SDS011;67538;52.180;5.646;2023-05-10T09:40:08;26.95;;;17.80;;
22248;SDS011;67538;52.180;5.646;2023-05-10T09:42:38;30.23;;;17.08;;
22248;SDS011;67538;52.180;5.646;2023-05-10T09:45:08;26.15;;;17.23;;
22248;SDS011;67538;52.180;5.646;2023-05-10T09:47:36;24.10;;;16.48;;
22248;SDS011;67538;52.180;5.646;2023-05-10T09:50:03;24.88;;;16.85;;
22248;SDS011;67538;52.180;5.646;2023-05-10T09:52:31;24.50;;;15.88;;
22248;SDS011;67538;52.180;5.646;2023-05-10T09:55:12;23.42;;;14.75;;
22248;SDS011;67538;52.180;5.646;2023-05-10T09:57:40;20.95;;;14.30;;
22248;SDS011;67538;52.180;5.646;2023-05-10T10:00:09;21.58;;;14.02;;
22248;SDS011;67538;52.180;5.646;2023-05-10T10:02:37;19.75;;;13.68;;
22248;SDS011;67538;52.180;5.646;2023-05-10T10:05:06;17.60;;;12.50;;
22248;SDS011;67538;52.180;5.646;2023-05-10T10:07:33;23.42;;;12.88;;
22248;SDS011;67538;52.180;5.646;2023-05-10T10:10:01;16.57;;;11.67;;
22248;SDS011;67538;52.180;5.646;2023-05-10T10:12:29;19.13;;;11.40;;
22248;SDS011;67538;52.180;5.646;2023-05-10T10:14:57;15.10;;;10.88;;
22248;SDS011;67538;52.180;5.646;2023-05-10T10:17:27;14.40;;;10.40;;
22248;SDS011;67538;52.180;5.646;2023-05-10T10:19:57;13.10;;;7.55;;
22248;SDS011;67538;52.180;5.646;2023-05-10T10:22:24;14.13;;;8.70;;
22248;SDS011;67538;52.180;5.646;2023-05-10T10:24:51;14.00;;;9.13;;
22248;SDS011;67538;52.180;5.646;2023-05-10T10:27:22;13.18;;;8.57;;
22248;SDS011;67538;52.180;5.646;2023-05-10T10:29:58;11.90;;;8.23;;
22248;SDS011;67538;52.180;5.646;2023-05-10T10:32:35;14.85;;;8.27;;
22248;SDS011;67538;52.180;5.646;2023-05-10T10:35:14;15.27;;;8.55;;
22248;SDS011;67538;52.180;5.646;2023-05-10T10:37:45;12.98;;;8.18;;
22248;SDS011;67538;52.180;5.646;2023-05-10T10:40:22;13.13;;;8.60;;
22248;SDS011;67538;52.180;5.646;2023-05-10T10:42:50;12.00;;;8.10;;
22248;SDS011;67538;52.180;5.646;2023-05-10T10:45:19;18.55;;;7.38;;
22248;SDS011;67538;52.180;5.646;2023-05-10T10:47:48;10.68;;;7.57;;
22248;SDS011;67538;52.180;5.646;2023-05-10T10:50:19;11.60;;;7.85;;
22248;SDS011;67538;52.180;5.646;2023-05-10T10:52:46;11.05;;;7.57;;
22248;SDS011;67538;52.180;5.646;2023-05-10T10:55:15;14.27;;;7.67;;
22248;SDS011;67538;52.180;5.646;2023-05-10T10:57:47;12.40;;;8.48;;
22248;SDS011;67538;52.180;5.646;2023-05-10T11:00:20;15.73;;;9.10;;
22248;SDS011;67538;52.180;5.646;2023-05-10T11:02:59;14.32;;;8.65;;
22248;SDS011;67538;52.180;5.646;2023-05-10T11:08:08;14.55;;;9.00;;
22248;SDS011;67538;52.180;5.646;2023-05-10T11:10:37;15.77;;;9.15;;
22248;SDS011;67538;52.180;5.646;2023-05-10T11:13:06;12.93;;;9.20;;
22248;SDS011;67538;52.180;5.646;2023-05-10T11:15:35;14.35;;;9.10;;
22248;SDS011;67538;52.180;5.646;2023-05-10T11:18:20;16.88;;;8.88;;
22248;SDS011;67538;52.180;5.646;2023-05-10T11:20:50;14.60;;;8.32;;
22248;SDS011;67538;52.180;5.646;2023-05-10T11:23:17;14.27;;;8.82;;
22248;SDS011;67538;52.180;5.646;2023-05-10T11:25:46;13.87;;;8.57;;
22248;SDS011;67538;52.180;5.646;2023-05-10T11:28:16;13.18;;;8.68;;
22248;SDS011;67538;52.180;5.646;2023-05-10T11:30:44;18.02;;;9.27;;
22248;SDS011;67538;52.180;5.646;2023-05-10T11:33:15;13.77;;;9.10;;
22248;SDS011;67538;52.180;5.646;2023-05-10T11:35:45;16.70;;;9.57;;
22248;SDS011;67538;52.180;5.646;2023-05-10T11:38:13;12.37;;;9.50;;
22248;SDS011;67538;52.180;5.646;2023-05-10T11:40:40;16.25;;;9.75;;
22248;SDS011;67538;52.180;5.646;2023-05-10T11:43:08;18.25;;;11.02;;
22248;SDS011;67538;52.180;5.646;2023-05-10T11:45:37;17.55;;;11.57;;
22248;SDS011;67538;52.180;5.646;2023-05-10T11:48:04;16.23;;;11.57;;
22248;SDS011;67538;52.180;5.646;2023-05-10T11:50:31;16.50;;;11.30;;
22248;SDS011;67538;52.180;5.646;2023-05-10T11:53:00;18.35;;;12.30;;
22248;SDS011;67538;52.180;5.646;2023-05-10T11:55:27;17.80;;;11.05;;
22248;SDS011;67538;52.180;5.646;2023-05-10T11:57:55;17.85;;;11.40;;
22248;SDS011;67538;52.180;5.646;2023-05-10T12:00:27;16.35;;;10.85;;
22248;SDS011;67538;52.180;5.646;2023-05-10T12:02:55;15.90;;;11.13;;
22248;SDS011;67538;52.180;5.646;2023-05-10T12:05:22;16.90;;;11.50;;
22248;SDS011;67538;52.180;5.646;2023-05-10T12:07:50;16.75;;;11.32;;
22248;SDS011;67538;52.180;5.646;2023-05-10T12:10:24;18.33;;;10.18;;
22248;SDS011;67538;52.180;5.646;2023-05-10T12:12:52;16.15;;;10.75;;
22248;SDS011;67538;52.180;5.646;2023-05-10T12:15:20;17.77;;;11.10;;
22248;SDS011;67538;52.180;5.646;2023-05-10T12:17:48;16.67;;;10.70;;
22248;SDS011;67538;52.180;5.646;2023-05-10T12:20:16;15.93;;;10.73;;
22248;SDS011;67538;52.180;5.646;2023-05-10T12:22:45;16.05;;;11.05;;
22248;SDS011;67538;52.180;5.646;2023-05-10T12:25:16;14.68;;;10.40;;
22248;SDS011;67538;52.180;5.646;2023-05-10T12:27:48;17.23;;;11.07;;
22248;SDS011;67538;52.180;5.646;2023-05-10T12:30:23;18.00;;;10.15;;
22248;SDS011;67538;52.180;5.646;2023-05-10T12:32:51;14.07;;;10.30;;
22248;SDS011;67538;52.180;5.646;2023-05-10T12:35:19;13.98;;;9.98;;
22248;SDS011;67538;52.180;5.646;2023-05-10T12:37:49;15.35;;;9.70;;
22248;SDS011;67538;52.180;5.646;2023-05-10T12:40:18;13.18;;;9.32;;
22248;SDS011;67538;52.180;5.646;2023-05-10T12:42:45;16.33;;;9.38;;
22248;SDS011;67538;52.180;5.646;2023-05-10T12:45:13;13.77;;;9.48;;
22248;SDS011;67538;52.180;5.646;2023-05-10T12:47:40;15.10;;;9.00;;
22248;SDS011;67538;52.180;5.646;2023-05-10T12:50:08;11.60;;;8.35;;
22248;SDS011;67538;52.180;5.646;2023-05-10T12:52:35;13.05;;;9.10;;
22248;SDS011;67538;52.180;5.646;2023-05-10T12:55:02;14.32;;;9.23;;
22248;SDS011;67538;52.180;5.646;2023-05-10T12:57:31;11.02;;;8.13;;
22248;SDS011;67538;52.180;5.646;2023-05-10T12:59:58;12.77;;;8.30;;
22248;SDS011;67538;52.180;5.646;2023-05-10T13:02:25;13.57;;;7.32;;
22248;SDS011;67538;52.180;5.646;2023-05-10T13:04:52;13.40;;;7.55;;
22248;SDS011;67538;52.180;5.646;2023-05-10T13:07:19;14.35;;;8.48;;
22248;SDS011;67538;52.180;5.646;2023-05-10T13:09:46;13.43;;;7.85;;
22248;SDS011;67538;52.180;5.646;2023-05-10T13:12:13;12.55;;;7.70;;
22248;SDS011;67538;52.180;5.646;2023-05-10T13:14:42;14.65;;;8.48;;
22248;SDS011;67538;52.180;5.646;2023-05-10T13:17:09;14.70;;;8.15;;
22248;SDS011;67538;52.180;5.646;2023-05-10T13:19:36;10.77;;;7.57;;
22248;SDS011;67538;52.180;5.646;2023-05-10T13:22:03;12.55;;;7.43;;
22248;SDS011;67538;52.180;5.646;2023-05-10T13:24:30;12.77;;;7.13;;
22248;SDS011;67538;52.180;5.646;2023-05-10T13:26:57;10.57;;;6.90;;
22248;SDS011;67538;52.180;5.646;2023-05-10T13:29:25;12.65;;;7.45;;
22248;SDS011;67538;52.180;5.646;2023-05-10T13:31:53;11.38;;;7.03;;
22248;SDS011;67538;52.180;5.646;2023-05-10T13:34:20;13.38;;;7.05;;
22248;SDS011;67538;52.180;5.646;2023-05-10T13:36:47;9.18;;;6.07;;
22248;SDS011;67538;52.180;5.646;2023-05-10T13:39:14;11.88;;;5.97;;
22248;SDS011;67538;52.180;5.646;2023-05-10T13:41:41;7.43;;;4.80;;
22248;SDS011;67538;52.180;5.646;2023-05-10T13:44:08;8.00;;;4.55;;
22248;SDS011;67538;52.180;5.646;2023-05-10T13:46:38;9.03;;;5.43;;
22248;SDS011;67538;52.180;5.646;2023-05-10T13:49:06;8.63;;;4.93;;
22248;SDS011;67538;52.180;5.646;2023-05-10T13:51:33;8.68;;;5.10;;
22248;SDS011;67538;52.180;5.646;2023-05-10T13:54:01;7.95;;;5.43;;
22248;SDS011;67538;52.180;5.646;2023-05-10T13:56:28;9.75;;;5.28;;
22248;SDS011;67538;52.180;5.646;2023-05-10T13:58:55;10.85;;;5.70;;
22248;SDS011;67538;52.180;5.646;2023-05-10T14:01:23;9.48;;;5.60;;
22248;SDS011;67538;52.180;5.646;2023-05-10T14:03:50;9.43;;;6.22;;
22248;SDS011;67538;52.180;5.646;2023-05-10T14:06:18;8.30;;;5.50;;
22248;SDS011;67538;52.180;5.646;2023-05-10T14:08:45;11.07;;;5.90;;
22248;SDS011;67538;52.180;5.646;2023-05-10T14:11:12;10.38;;;5.50;;
22248;SDS011;67538;52.180;5.646;2023-05-10T14:13:40;9.43;;;5.85;;
22248;SDS011;67538;52.180;5.646;2023-05-10T14:16:07;17.02;;;9.25;;
22248;SDS011;67538;52.180;5.646;2023-05-10T14:18:34;17.40;;;10.60;;
22248;SDS011;67538;52.180;5.646;2023-05-10T14:21:01;21.17;;;11.10;;
22248;SDS011;67538;52.180;5.646;2023-05-10T14:23:30;22.98;;;11.23;;
22248;SDS011;67538;52.180;5.646;2023-05-10T14:25:57;17.77;;;10.63;;
22248;SDS011;67538;52.180;5.646;2023-05-10T14:28:24;21.63;;;11.77;;
22248;SDS011;67538;52.180;5.646;2023-05-10T14:30:51;20.52;;;12.25;;